sensor_id;sensor_type;location;lat;lon;timestamp;P1;durP1;ratioP1;P2;durP2;ratioP2
76552;SDS011;65395;53.168;18.156;2023-08-01T00:00:11;5.50;;;3.30;;
76552;SDS011;65395;53.168;18.156;2023-08-01T00:02:57;6.20;;;3.40;;
76552;SDS011;65395;53.168;18.156;2023-08-01T00:05:24;6.30;;;3.20;;
76552;SDS011;65395;53.168;18.156;2023-08-01T00:07:52;6.90;;;3.40;;
76552;SDS011;65395;53.168;18.156;2023-08-01T00:10:19;5.50;;;3.20;;
76552;SDS011;65395;53.168;18.156;2023-08-01T00:12:46;7.50;;;3.00;;
76552;SDS011;65395;53.168;18.156;2023-08-01T00:15:12;5.20;;;3.20;;
76552;SDS011;65395;53.168;18.156;2023-08-01T00:17:40;7.80;;;3.50;;
76552;SDS011;65395;53.168;18.156;2023-08-01T00:20:07;4.80;;;3.00;;
76552;SDS011;65395;53.168;18.156;2023-08-01T00:22:34;5.40;;;3.30;;
76552;SDS011;65395;53.168;18.156;2023-08-01T00:25:01;4.80;;;3.10;;
76552;SDS011;65395;53.168;18.156;2023-08-01T00:27:28;4.70;;;3.00;;
76552;SDS011;65395;53.168;18.156;2023-08-01T00:29:55;5.70;;;3.20;;
76552;SDS011;65395;53.168;18.156;2023-08-01T00:32:22;4.40;;;3.20;;
76552;SDS011;65395;53.168;18.156;2023-08-01T00:34:49;7.50;;;3.30;;
76552;SDS011;65395;53.168;18.156;2023-08-01T00:37:17;5.80;;;3.10;;
76552;SDS011;65395;53.168;18.156;2023-08-01T00:39:44;6.70;;;3.20;;
76552;SDS011;65395;53.168;18.156;2023-08-01T00:42:10;6.10;;;3.10;;
76552;SDS011;65395;53.168;18.156;2023-08-01T00:44:37;7.50;;;3.50;;
76552;SDS011;65395;53.168;18.156;2023-08-01T00:47:03;7.20;;;3.60;;
76552;SDS011;65395;53.168;18.156;2023-08-01T00:49:30;5.70;;;3.40;;
76552;SDS011;65395;53.168;18.156;2023-08-01T00:51:57;7.00;;;3.50;;
76552;SDS011;65395;53.168;18.156;2023-08-01T00:54:24;7.60;;;3.90;;
76552;SDS011;65395;53.168;18.156;2023-08-01T00:56:53;4.90;;;3.00;;
76552;SDS011;65395;53.168;18.156;2023-08-01T00:59:20;5.60;;;3.30;;
76552;SDS011;65395;53.168;18.156;2023-08-01T01:01:46;5.60;;;3.40;;
76552;SDS011;65395;53.168;18.156;2023-08-01T01:04:13;4.70;;;3.00;;
76552;SDS011;65395;53.168;18.156;2023-08-01T01:06:43;5.00;;;3.20;;
76552;SDS011;65395;53.168;18.156;2023-08-01T01:09:18;5.20;;;3.00;;
76552;SDS011;65395;53.168;18.156;2023-08-01T01:11:46;4.70;;;2.80;;
76552;SDS011;65395;53.168;18.156;2023-08-01T01:14:13;7.20;;;3.10;;
76552;SDS011;65395;53.168;18.156;2023-08-01T01:16:41;6.30;;;3.00;;
76552;SDS011;65395;53.168;18.156;2023-08-01T01:19:08;9.20;;;2.80;;
76552;SDS011;65395;53.168;18.156;2023-08-01T01:21:35;5.40;;;2.80;;
76552;SDS011;65395;53.168;18.156;2023-08-01T01:24:15;6.20;;;2.70;;
76552;SDS011;65395;53.168;18.156;2023-08-01T01:26:53;4.30;;;3.00;;
76552;SDS011;65395;53.168;18.156;2023-08-01T01:29:23;5.80;;;2.80;;
76552;SDS011;65395;53.168;18.156;2023-08-01T01:31:50;4.50;;;3.10;;
76552;SDS011;65395;53.168;18.156;2023-08-01T01:34:18;4.70;;;2.90;;
76552;SDS011;65395;53.168;18.156;2023-08-01T01:36:45;5.30;;;2.80;;
76552;SDS011;65395;53.168;18.156;2023-08-01T01:39:12;5.60;;;2.90;;
76552;SDS011;65395;53.168;18.156;2023-08-01T01:41:39;7.30;;;2.80;;
76552;SDS011;65395;53.168;18.156;2023-08-01T01:44:05;7.20;;;2.80;;
76552;SDS011;65395;53.168;18.156;2023-08-01T01:46:32;5.80;;;3.20;;
76552;SDS011;65395;53.168;18.156;2023-08-01T01:48:59;6.40;;;3.20;;
76552;SDS011;65395;53.168;18.156;2023-08-01T01:51:26;4.90;;;3.00;;
76552;SDS011;65395;53.168;18.156;2023-08-01T01:53:53;5.10;;;3.10;;
76552;SDS011;65395;53.168;18.156;2023-08-01T01:56:20;4.30;;;2.90;;
76552;SDS011;65395;53.168;18.156;2023-08-01T01:58:47;5.20;;;2.80;;
76552;SDS011;65395;53.168;18.156;2023-08-01T02:01:14;6.10;;;2.90;;
76552;SDS011;65395;53.168;18.156;2023-08-01T02:03:40;5.20;;;3.20;;
76552;SDS011;65395;53.168;18.156;2023-08-01T02:06:07;4.40;;;2.60;;
76552;SDS011;65395;53.168;18.156;2023-08-01T02:08:34;6.80;;;3.00;;
76552;SDS011;65395;53.168;18.156;2023-08-01T02:11:02;6.30;;;3.00;;
76552;SDS011;65395;53.168;18.156;2023-08-01T02:13:29;4.20;;;2.70;;
76552;SDS011;65395;53.168;18.156;2023-08-01T02:15:56;5.70;;;2.90;;
76552;SDS011;65395;53.168;18.156;2023-08-01T02:18:23;5.80;;;3.20;;
76552;SDS011;65395;53.168;18.156;2023-08-01T02:20:50;4.90;;;2.90;;
76552;SDS011;65395;53.168;18.156;2023-08-01T02:23:16;7.60;;;2.70;;
76552;SDS011;65395;53.168;18.156;2023-08-01T02:25:43;5.10;;;2.80;;
76552;SDS011;65395;53.168;18.156;2023-08-01T02:28:10;4.70;;;3.00;;
76552;SDS011;65395;53.168;18.156;2023-08-01T02:30:38;5.60;;;2.80;;
76552;SDS011;65395;53.168;18.156;2023-08-01T02:33:05;6.40;;;3.10;;
76552;SDS011;65395;53.168;18.156;2023-08-01T02:35:32;5.80;;;3.00;;
76552;SDS011;65395;53.168;18.156;2023-08-01T02:37:59;4.70;;;3.00;;
76552;SDS011;65395;53.168;18.156;2023-08-01T02:40:26;5.50;;;3.10;;
76552;SDS011;65395;53.168;18.156;2023-08-01T02:42:53;4.40;;;2.60;;
76552;SDS011;65395;53.168;18.156;2023-08-01T02:45:21;8.30;;;3.10;;
76552;SDS011;65395;53.168;18.156;2023-08-01T02:47:48;5.00;;;2.80;;
76552;SDS011;65395;53.168;18.156;2023-08-01T02:50:15;4.50;;;3.00;;
76552;SDS011;65395;53.168;18.156;2023-08-01T02:52:42;4.50;;;2.90;;
76552;SDS011;65395;53.168;18.156;2023-08-01T02:55:09;5.80;;;3.10;;
76552;SDS011;65395;53.168;18.156;2023-08-01T02:57:36;5.20;;;3.20;;
76552;SDS011;65395;53.168;18.156;2023-08-01T03:00:03;6.20;;;2.90;;
76552;SDS011;65395;53.168;18.156;2023-08-01T03:02:32;5.20;;;3.20;;
76552;SDS011;65395;53.168;18.156;2023-08-01T03:04:59;7.20;;;3.10;;
76552;SDS011;65395;53.168;18.156;2023-08-01T03:07:26;5.60;;;3.10;;
76552;SDS011;65395;53.168;18.156;2023-08-01T03:09:52;8.00;;;3.20;;
76552;SDS011;65395;53.168;18.156;2023-08-01T03:12:19;5.20;;;3.20;;
76552;SDS011;65395;53.168;18.156;2023-08-01T03:14:47;7.70;;;3.30;;
76552;SDS011;65395;53.168;18.156;2023-08-01T03:17:14;7.20;;;3.00;;
76552;SDS011;65395;53.168;18.156;2023-08-01T03:19:41;5.10;;;3.20;;
76552;SDS011;65395;53.168;18.156;2023-08-01T03:22:07;8.00;;;3.70;;
76552;SDS011;65395;53.168;18.156;2023-08-01T03:24:35;7.50;;;3.40;;
76552;SDS011;65395;53.168;18.156;2023-08-01T03:27:02;5.10;;;3.40;;
76552;SDS011;65395;53.168;18.156;2023-08-01T03:29:29;4.50;;;3.30;;
76552;SDS011;65395;53.168;18.156;2023-08-01T03:31:56;7.00;;;3.30;;
76552;SDS011;65395;53.168;18.156;2023-08-01T03:34:23;5.30;;;3.20;;
76552;SDS011;65395;53.168;18.156;2023-08-01T03:36:49;6.20;;;3.30;;
76552;SDS011;65395;53.168;18.156;2023-08-01T03:39:16;5.50;;;3.60;;
76552;SDS011;65395;53.168;18.156;2023-08-01T03:41:43;6.40;;;3.40;;
76552;SDS011;65395;53.168;18.156;2023-08-01T03:44:09;8.70;;;3.80;;
76552;SDS011;65395;53.168;18.156;2023-08-01T03:46:36;5.70;;;3.30;;
76552;SDS011;65395;53.168;18.156;2023-08-01T03:49:02;5.50;;;3.40;;
76552;SDS011;65395;53.168;18.156;2023-08-01T03:51:29;5.50;;;3.30;;
76552;SDS011;65395;53.168;18.156;2023-08-01T03:53:56;6.80;;;3.80;;
76552;SDS011;65395;53.168;18.156;2023-08-01T03:56:24;6.50;;;3.60;;
76552;SDS011;65395;53.168;18.156;2023-08-01T03:58:51;7.30;;;3.50;;
76552;SDS011;65395;53.168;18.156;2023-08-01T04:01:17;7.90;;;3.40;;
76552;SDS011;65395;53.168;18.156;2023-08-01T04:03:44;6.70;;;3.70;;
76552;SDS011;65395;53.168;18.156;2023-08-01T04:06:11;6.00;;;3.40;;
76552;SDS011;65395;53.168;18.156;2023-08-01T04:08:41;8.00;;;3.60;;
76552;SDS011;65395;53.168;18.156;2023-08-01T04:11:08;6.40;;;3.40;;
76552;SDS011;65395;53.168;18.156;2023-08-01T04:13:34;5.00;;;3.40;;
76552;SDS011;65395;53.168;18.156;2023-08-01T04:16:01;6.80;;;3.70;;
76552;SDS011;65395;53.168;18.156;2023-08-01T04:18:28;5.40;;;3.50;;
76552;SDS011;65395;53.168;18.156;2023-08-01T04:20:55;6.30;;;3.80;;
76552;SDS011;65395;53.168;18.156;2023-08-01T04:23:21;6.80;;;3.60;;
76552;SDS011;65395;53.168;18.156;2023-08-01T04:25:48;6.10;;;3.60;;
76552;SDS011;65395;53.168;18.156;2023-08-01T04:28:14;7.40;;;3.60;;
76552;SDS011;65395;53.168;18.156;2023-08-01T04:30:41;5.60;;;3.40;;
76552;SDS011;65395;53.168;18.156;2023-08-01T04:33:08;6.60;;;3.80;;
76552;SDS011;65395;53.168;18.156;2023-08-01T04:35:34;6.30;;;3.50;;
76552;SDS011;65395;53.168;18.156;2023-08-01T04:38:01;9.00;;;3.50;;
76552;SDS011;65395;53.168;18.156;2023-08-01T04:40:28;7.20;;;3.60;;
76552;SDS011;65395;53.168;18.156;2023-08-01T04:42:54;5.80;;;3.80;;
76552;SDS011;65395;53.168;18.156;2023-08-01T04:45:21;7.00;;;3.60;;
76552;SDS011;65395;53.168;18.156;2023-08-01T04:47:48;12.20;;;4.20;;
76552;SDS011;65395;53.168;18.156;2023-08-01T04:50:14;7.60;;;4.00;;
76552;SDS011;65395;53.168;18.156;2023-08-01T04:52:41;7.00;;;4.00;;
76552;SDS011;65395;53.168;18.156;2023-08-01T04:55:08;7.50;;;4.30;;
76552;SDS011;65395;53.168;18.156;2023-08-01T04:57:35;6.40;;;3.90;;
76552;SDS011;65395;53.168;18.156;2023-08-01T05:00:02;5.40;;;4.10;;
76552;SDS011;65395;53.168;18.156;2023-08-01T05:02:30;7.20;;;4.40;;
76552;SDS011;65395;53.168;18.156;2023-08-01T05:04:57;6.20;;;4.30;;
76552;SDS011;65395;53.168;18.156;2023-08-01T05:07:23;7.70;;;3.60;;
76552;SDS011;65395;53.168;18.156;2023-08-01T05:09:50;6.90;;;3.90;;
76552;SDS011;65395;53.168;18.156;2023-08-01T05:12:16;5.00;;;3.70;;
76552;SDS011;65395;53.168;18.156;2023-08-01T05:14:43;5.40;;;3.90;;
76552;SDS011;65395;53.168;18.156;2023-08-01T05:17:10;6.70;;;4.10;;
76552;SDS011;65395;53.168;18.156;2023-08-01T05:19:36;8.30;;;4.70;;
76552;SDS011;65395;53.168;18.156;2023-08-01T05:22:03;10.40;;;4.70;;
76552;SDS011;65395;53.168;18.156;2023-08-01T05:24:30;6.10;;;4.10;;
76552;SDS011;65395;53.168;18.156;2023-08-01T05:26:57;9.00;;;4.30;;
76552;SDS011;65395;53.168;18.156;2023-08-01T05:29:23;7.10;;;4.20;;
76552;SDS011;65395;53.168;18.156;2023-08-01T05:31:50;6.40;;;4.20;;
76552;SDS011;65395;53.168;18.156;2023-08-01T05:34:17;12.00;;;4.90;;
76552;SDS011;65395;53.168;18.156;2023-08-01T05:36:43;8.30;;;4.30;;
76552;SDS011;65395;53.168;18.156;2023-08-01T05:39:10;8.80;;;4.50;;
76552;SDS011;65395;53.168;18.156;2023-08-01T05:41:37;11.50;;;5.00;;
76552;SDS011;65395;53.168;18.156;2023-08-01T05:44:03;8.70;;;5.00;;
76552;SDS011;65395;53.168;18.156;2023-08-01T05:46:30;7.60;;;4.40;;
76552;SDS011;65395;53.168;18.156;2023-08-01T05:48:57;6.70;;;4.60;;
76552;SDS011;65395;53.168;18.156;2023-08-01T05:51:24;7.50;;;4.70;;
76552;SDS011;65395;53.168;18.156;2023-08-01T05:53:53;8.20;;;4.70;;
76552;SDS011;65395;53.168;18.156;2023-08-01T05:56:20;7.20;;;4.40;;
76552;SDS011;65395;53.168;18.156;2023-08-01T05:58:47;8.20;;;4.10;;
76552;SDS011;65395;53.168;18.156;2023-08-01T06:01:13;7.10;;;4.30;;
76552;SDS011;65395;53.168;18.156;2023-08-01T06:03:40;6.50;;;4.30;;
76552;SDS011;65395;53.168;18.156;2023-08-01T06:06:07;6.80;;;4.20;;
76552;SDS011;65395;53.168;18.156;2023-08-01T06:08:34;12.10;;;4.80;;
76552;SDS011;65395;53.168;18.156;2023-08-01T06:11:00;7.10;;;4.20;;
76552;SDS011;65395;53.168;18.156;2023-08-01T06:13:27;7.50;;;4.60;;
76552;SDS011;65395;53.168;18.156;2023-08-01T06:15:54;8.80;;;4.50;;
76552;SDS011;65395;53.168;18.156;2023-08-01T06:18:21;7.90;;;4.20;;
76552;SDS011;65395;53.168;18.156;2023-08-01T06:20:48;8.10;;;4.20;;
76552;SDS011;65395;53.168;18.156;2023-08-01T06:23:15;7.80;;;5.10;;
76552;SDS011;65395;53.168;18.156;2023-08-01T06:25:42;8.10;;;4.40;;
76552;SDS011;65395;53.168;18.156;2023-08-01T06:28:08;7.60;;;4.50;;
76552;SDS011;65395;53.168;18.156;2023-08-01T06:30:35;10.80;;;5.30;;
76552;SDS011;65395;53.168;18.156;2023-08-01T06:33:02;9.10;;;4.40;;
76552;SDS011;65395;53.168;18.156;2023-08-01T06:35:28;11.00;;;4.90;;
76552;SDS011;65395;53.168;18.156;2023-08-01T06:37:55;8.10;;;5.00;;
76552;SDS011;65395;53.168;18.156;2023-08-01T06:40:22;6.30;;;4.30;;
76552;SDS011;65395;53.168;18.156;2023-08-01T06:42:48;6.70;;;4.70;;
76552;SDS011;65395;53.168;18.156;2023-08-01T06:45:15;8.60;;;4.80;;
76552;SDS011;65395;53.168;18.156;2023-08-01T06:47:41;10.30;;;4.20;;
76552;SDS011;65395;53.168;18.156;2023-08-01T06:50:09;5.90;;;4.50;;
76552;SDS011;65395;53.168;18.156;2023-08-01T06:52:36;7.60;;;4.60;;
76552;SDS011;65395;53.168;18.156;2023-08-01T06:55:02;6.70;;;4.80;;
76552;SDS011;65395;53.168;18.156;2023-08-01T06:57:29;9.00;;;4.80;;
76552;SDS011;65395;53.168;18.156;2023-08-01T06:59:57;8.30;;;4.50;;
76552;SDS011;65395;53.168;18.156;2023-08-01T07:02:23;7.70;;;4.70;;
76552;SDS011;65395;53.168;18.156;2023-08-01T07:04:51;10.40;;;5.20;;
76552;SDS011;65395;53.168;18.156;2023-08-01T07:07:18;7.10;;;4.80;;
76552;SDS011;65395;53.168;18.156;2023-08-01T07:09:45;8.40;;;4.50;;
76552;SDS011;65395;53.168;18.156;2023-08-01T07:12:11;7.10;;;5.00;;
76552;SDS011;65395;53.168;18.156;2023-08-01T07:14:38;7.80;;;4.50;;
76552;SDS011;65395;53.168;18.156;2023-08-01T07:17:05;11.70;;;5.00;;
76552;SDS011;65395;53.168;18.156;2023-08-01T07:19:31;6.10;;;4.50;;
76552;SDS011;65395;53.168;18.156;2023-08-01T07:21:58;6.40;;;4.30;;
76552;SDS011;65395;53.168;18.156;2023-08-01T07:24:25;8.50;;;4.70;;
76552;SDS011;65395;53.168;18.156;2023-08-01T07:26:52;6.00;;;4.50;;
76552;SDS011;65395;53.168;18.156;2023-08-01T07:29:18;7.80;;;4.90;;
76552;SDS011;65395;53.168;18.156;2023-08-01T07:31:45;8.50;;;4.60;;
76552;SDS011;65395;53.168;18.156;2023-08-01T07:34:12;7.90;;;4.60;;
76552;SDS011;65395;53.168;18.156;2023-08-01T07:36:39;9.80;;;4.50;;
76552;SDS011;65395;53.168;18.156;2023-08-01T07:39:06;7.20;;;4.60;;
76552;SDS011;65395;53.168;18.156;2023-08-01T07:41:32;7.80;;;4.40;;
76552;SDS011;65395;53.168;18.156;2023-08-01T07:44:01;8.60;;;4.60;;
76552;SDS011;65395;53.168;18.156;2023-08-01T07:46:29;6.40;;;4.50;;
76552;SDS011;65395;53.168;18.156;2023-08-01T07:48:56;7.50;;;4.40;;
76552;SDS011;65395;53.168;18.156;2023-08-01T07:51:23;7.60;;;4.60;;
76552;SDS011;65395;53.168;18.156;2023-08-01T07:53:50;9.60;;;4.90;;
76552;SDS011;65395;53.168;18.156;2023-08-01T07:56:19;7.10;;;4.70;;
76552;SDS011;65395;53.168;18.156;2023-08-01T07:58:46;8.30;;;4.80;;
76552;SDS011;65395;53.168;18.156;2023-08-01T08:01:13;9.00;;;5.10;;
76552;SDS011;65395;53.168;18.156;2023-08-01T08:03:40;9.10;;;4.60;;
76552;SDS011;65395;53.168;18.156;2023-08-01T08:06:06;7.30;;;4.40;;
76552;SDS011;65395;53.168;18.156;2023-08-01T08:08:33;9.70;;;4.60;;
76552;SDS011;65395;53.168;18.156;2023-08-01T08:11:00;7.50;;;4.60;;
76552;SDS011;65395;53.168;18.156;2023-08-01T08:13:28;8.10;;;4.30;;
76552;SDS011;65395;53.168;18.156;2023-08-01T08:15:55;7.90;;;4.10;;
76552;SDS011;65395;53.168;18.156;2023-08-01T08:18:23;6.80;;;3.80;;
76552;SDS011;65395;53.168;18.156;2023-08-01T08:20:50;7.30;;;4.30;;
76552;SDS011;65395;53.168;18.156;2023-08-01T08:23:16;6.10;;;3.90;;
76552;SDS011;65395;53.168;18.156;2023-08-01T08:25:43;7.80;;;4.00;;
76552;SDS011;65395;53.168;18.156;2023-08-01T08:28:13;8.30;;;4.30;;
76552;SDS011;65395;53.168;18.156;2023-08-01T08:30:40;9.10;;;4.60;;
76552;SDS011;65395;53.168;18.156;2023-08-01T08:33:07;7.50;;;4.60;;
76552;SDS011;65395;53.168;18.156;2023-08-01T08:35:34;7.00;;;4.70;;
76552;SDS011;65395;53.168;18.156;2023-08-01T08:38:01;6.00;;;4.30;;
76552;SDS011;65395;53.168;18.156;2023-08-01T08:40:31;5.80;;;4.40;;
76552;SDS011;65395;53.168;18.156;2023-08-01T08:43:01;6.40;;;4.40;;
76552;SDS011;65395;53.168;18.156;2023-08-01T08:45:32;9.60;;;5.00;;
76552;SDS011;65395;53.168;18.156;2023-08-01T08:48:02;7.90;;;4.90;;
76552;SDS011;65395;53.168;18.156;2023-08-01T08:50:35;9.20;;;4.50;;
76552;SDS011;65395;53.168;18.156;2023-08-01T08:53:03;8.40;;;5.00;;
76552;SDS011;65395;53.168;18.156;2023-08-01T08:55:30;8.70;;;5.00;;
76552;SDS011;65395;53.168;18.156;2023-08-01T08:57:58;9.80;;;5.60;;
76552;SDS011;65395;53.168;18.156;2023-08-01T09:00:26;7.40;;;5.10;;
76552;SDS011;65395;53.168;18.156;2023-08-01T09:02:54;7.60;;;5.00;;
76552;SDS011;65395;53.168;18.156;2023-08-01T09:05:21;8.10;;;5.10;;
76552;SDS011;65395;53.168;18.156;2023-08-01T09:07:54;8.50;;;5.40;;
76552;SDS011;65395;53.168;18.156;2023-08-01T09:10:23;9.10;;;5.60;;
76552;SDS011;65395;53.168;18.156;2023-08-01T09:12:50;9.00;;;5.40;;
76552;SDS011;65395;53.168;18.156;2023-08-01T09:15:17;9.10;;;5.50;;
76552;SDS011;65395;53.168;18.156;2023-08-01T09:17:49;9.10;;;5.60;;
76552;SDS011;65395;53.168;18.156;2023-08-01T09:20:16;8.40;;;4.60;;
76552;SDS011;65395;53.168;18.156;2023-08-01T09:22:43;8.70;;;5.40;;
76552;SDS011;65395;53.168;18.156;2023-08-01T09:25:11;7.70;;;5.30;;
76552;SDS011;65395;53.168;18.156;2023-08-01T09:27:39;8.40;;;5.00;;
76552;SDS011;65395;53.168;18.156;2023-08-01T09:30:10;8.70;;;5.10;;
76552;SDS011;65395;53.168;18.156;2023-08-01T09:35:20;8.40;;;5.20;;
76552;SDS011;65395;53.168;18.156;2023-08-01T09:37:48;9.10;;;5.10;;
76552;SDS011;65395;53.168;18.156;2023-08-01T09:40:15;9.50;;;4.70;;
76552;SDS011;65395;53.168;18.156;2023-08-01T09:42:43;5.90;;;4.50;;
76552;SDS011;65395;53.168;18.156;2023-08-01T09:45:18;7.10;;;4.50;;
76552;SDS011;65395;53.168;18.156;2023-08-01T09:47:45;5.60;;;4.50;;
76552;SDS011;65395;53.168;18.156;2023-08-01T09:50:19;6.20;;;4.30;;
76552;SDS011;65395;53.168;18.156;2023-08-01T09:52:47;6.80;;;4.40;;
76552;SDS011;65395;53.168;18.156;2023-08-01T09:57:59;5.90;;;4.60;;
76552;SDS011;65395;53.168;18.156;2023-08-01T10:00:26;7.00;;;4.70;;
76552;SDS011;65395;53.168;18.156;2023-08-01T10:02:55;6.00;;;4.00;;
76552;SDS011;65395;53.168;18.156;2023-08-01T10:05:29;7.10;;;3.80;;
76552;SDS011;65395;53.168;18.156;2023-08-01T10:07:59;5.10;;;4.20;;
76552;SDS011;65395;53.168;18.156;2023-08-01T10:10:27;7.40;;;4.10;;
76552;SDS011;65395;53.168;18.156;2023-08-01T10:12:57;5.70;;;3.80;;
76552;SDS011;65395;53.168;18.156;2023-08-01T10:15:24;8.40;;;4.40;;
76552;SDS011;65395;53.168;18.156;2023-08-01T10:17:53;4.70;;;3.60;;
76552;SDS011;65395;53.168;18.156;2023-08-01T10:20:20;7.40;;;3.70;;
76552;SDS011;65395;53.168;18.156;2023-08-01T10:22:49;6.50;;;3.90;;
76552;SDS011;65395;53.168;18.156;2023-08-01T10:25:18;6.80;;;4.00;;
76552;SDS011;65395;53.168;18.156;2023-08-01T10:30:27;7.10;;;4.00;;
76552;SDS011;65395;53.168;18.156;2023-08-01T10:32:55;6.00;;;4.10;;
76552;SDS011;65395;53.168;18.156;2023-08-01T10:38:06;5.20;;;4.10;;
76552;SDS011;65395;53.168;18.156;2023-08-01T10:40:35;6.10;;;3.90;;
76552;SDS011;65395;53.168;18.156;2023-08-01T10:43:03;5.50;;;4.00;;
76552;SDS011;65395;53.168;18.156;2023-08-01T10:45:31;5.70;;;4.00;;
76552;SDS011;65395;53.168;18.156;2023-08-01T10:50:36;5.60;;;4.30;;
76552;SDS011;65395;53.168;18.156;2023-08-01T10:53:05;8.00;;;4.50;;
76552;SDS011;65395;53.168;18.156;2023-08-01T10:55:41;5.30;;;4.20;;
76552;SDS011;65395;53.168;18.156;2023-08-01T10:58:10;6.10;;;4.40;;
76552;SDS011;65395;53.168;18.156;2023-08-01T11:00:37;8.60;;;4.60;;
76552;SDS011;65395;53.168;18.156;2023-08-01T11:03:05;7.50;;;5.10;;
76552;SDS011;65395;53.168;18.156;2023-08-01T11:05:31;8.70;;;4.80;;
76552;SDS011;65395;53.168;18.156;2023-08-01T11:07:59;7.30;;;5.00;;
76552;SDS011;65395;53.168;18.156;2023-08-01T11:10:28;7.60;;;5.30;;
76552;SDS011;65395;53.168;18.156;2023-08-01T11:12:57;6.30;;;4.90;;
76552;SDS011;65395;53.168;18.156;2023-08-01T11:15:24;7.40;;;5.40;;
76552;SDS011;65395;53.168;18.156;2023-08-01T11:17:52;8.90;;;4.80;;
76552;SDS011;65395;53.168;18.156;2023-08-01T11:20:20;6.50;;;4.30;;
76552;SDS011;65395;53.168;18.156;2023-08-01T11:22:49;8.70;;;4.10;;
76552;SDS011;65395;53.168;18.156;2023-08-01T11:25:18;5.40;;;3.70;;
76552;SDS011;65395;53.168;18.156;2023-08-01T11:27:46;5.30;;;4.10;;
76552;SDS011;65395;53.168;18.156;2023-08-01T11:30:12;5.80;;;4.10;;
76552;SDS011;65395;53.168;18.156;2023-08-01T11:32:39;6.40;;;3.60;;
76552;SDS011;65395;53.168;18.156;2023-08-01T11:35:06;5.20;;;3.60;;
76552;SDS011;65395;53.168;18.156;2023-08-01T11:37:33;5.80;;;3.70;;
76552;SDS011;65395;53.168;18.156;2023-08-01T11:40:01;7.40;;;4.20;;
76552;SDS011;65395;53.168;18.156;2023-08-01T11:42:30;5.50;;;4.30;;
76552;SDS011;65395;53.168;18.156;2023-08-01T11:47:37;6.70;;;4.40;;
76552;SDS011;65395;53.168;18.156;2023-08-01T11:50:04;7.00;;;4.50;;
76552;SDS011;65395;53.168;18.156;2023-08-01T11:52:32;5.90;;;4.50;;
76552;SDS011;65395;53.168;18.156;2023-08-01T11:54:59;5.80;;;4.50;;
76552;SDS011;65395;53.168;18.156;2023-08-01T11:57:25;5.60;;;4.30;;
76552;SDS011;65395;53.168;18.156;2023-08-01T11:59:53;7.00;;;4.00;;
76552;SDS011;65395;53.168;18.156;2023-08-01T12:02:23;5.70;;;3.70;;
76552;SDS011;65395;53.168;18.156;2023-08-01T12:04:52;5.60;;;3.80;;
76552;SDS011;65395;53.168;18.156;2023-08-01T12:07:20;4.50;;;3.30;;
76552;SDS011;65395;53.168;18.156;2023-08-01T12:09:55;4.60;;;3.40;;
76552;SDS011;65395;53.168;18.156;2023-08-01T12:12:23;5.80;;;3.40;;
76552;SDS011;65395;53.168;18.156;2023-08-01T12:14:52;5.90;;;3.80;;
76552;SDS011;65395;53.168;18.156;2023-08-01T12:17:19;4.70;;;3.50;;
76552;SDS011;65395;53.168;18.156;2023-08-01T12:19:46;3.80;;;3.40;;
76552;SDS011;65395;53.168;18.156;2023-08-01T12:22:13;5.00;;;3.80;;
76552;SDS011;65395;53.168;18.156;2023-08-01T12:24:41;4.50;;;3.60;;
76552;SDS011;65395;53.168;18.156;2023-08-01T12:27:08;4.80;;;3.60;;
76552;SDS011;65395;53.168;18.156;2023-08-01T12:29:36;5.30;;;3.40;;
76552;SDS011;65395;53.168;18.156;2023-08-01T12:32:03;6.90;;;3.80;;
76552;SDS011;65395;53.168;18.156;2023-08-01T12:34:30;6.40;;;3.60;;
76552;SDS011;65395;53.168;18.156;2023-08-01T12:36:57;6.80;;;4.00;;
76552;SDS011;65395;53.168;18.156;2023-08-01T12:39:23;7.60;;;4.20;;
76552;SDS011;65395;53.168;18.156;2023-08-01T12:41:52;5.70;;;4.00;;
76552;SDS011;65395;53.168;18.156;2023-08-01T12:44:20;5.20;;;3.90;;
76552;SDS011;65395;53.168;18.156;2023-08-01T12:46:47;4.70;;;4.00;;
76552;SDS011;65395;53.168;18.156;2023-08-01T12:49:14;6.20;;;4.40;;
76552;SDS011;65395;53.168;18.156;2023-08-01T12:51:41;5.70;;;4.40;;
76552;SDS011;65395;53.168;18.156;2023-08-01T12:54:08;5.50;;;4.30;;
76552;SDS011;65395;53.168;18.156;2023-08-01T12:56:35;5.10;;;4.40;;
76552;SDS011;65395;53.168;18.156;2023-08-01T12:59:01;8.40;;;4.90;;
76552;SDS011;65395;53.168;18.156;2023-08-01T13:01:28;7.10;;;4.40;;
76552;SDS011;65395;53.168;18.156;2023-08-01T13:03:55;8.20;;;4.70;;
76552;SDS011;65395;53.168;18.156;2023-08-01T13:06:22;5.80;;;4.80;;
76552;SDS011;65395;53.168;18.156;2023-08-01T13:08:48;8.20;;;5.10;;
76552;SDS011;65395;53.168;18.156;2023-08-01T13:11:15;9.30;;;4.70;;
76552;SDS011;65395;53.168;18.156;2023-08-01T13:13:42;6.40;;;4.70;;
76552;SDS011;65395;53.168;18.156;2023-08-01T13:16:09;6.60;;;4.60;;
76552;SDS011;65395;53.168;18.156;2023-08-01T13:18:36;7.40;;;5.10;;
76552;SDS011;65395;53.168;18.156;2023-08-01T13:21:09;9.60;;;4.90;;
76552;SDS011;65395;53.168;18.156;2023-08-01T13:23:37;9.40;;;4.80;;
76552;SDS011;65395;53.168;18.156;2023-08-01T13:26:04;8.20;;;4.50;;
76552;SDS011;65395;53.168;18.156;2023-08-01T13:28:31;6.30;;;4.50;;
76552;SDS011;65395;53.168;18.156;2023-08-01T13:30:57;9.00;;;5.10;;
76552;SDS011;65395;53.168;18.156;2023-08-01T13:33:24;7.20;;;5.40;;
76552;SDS011;65395;53.168;18.156;2023-08-01T13:35:51;7.50;;;4.90;;
76552;SDS011;65395;53.168;18.156;2023-08-01T13:38:20;7.50;;;5.00;;
76552;SDS011;65395;53.168;18.156;2023-08-01T13:40:46;6.00;;;4.90;;
76552;SDS011;65395;53.168;18.156;2023-08-01T13:43:13;7.40;;;5.30;;
76552;SDS011;65395;53.168;18.156;2023-08-01T13:45:40;7.20;;;5.10;;
76552;SDS011;65395;53.168;18.156;2023-08-01T13:48:07;6.60;;;4.80;;
76552;SDS011;65395;53.168;18.156;2023-08-01T13:50:34;7.30;;;5.10;;
76552;SDS011;65395;53.168;18.156;2023-08-01T13:53:01;8.80;;;5.00;;
76552;SDS011;65395;53.168;18.156;2023-08-01T13:55:27;6.40;;;4.80;;
76552;SDS011;65395;53.168;18.156;2023-08-01T13:57:54;7.70;;;5.30;;
76552;SDS011;65395;53.168;18.156;2023-08-01T14:00:21;8.50;;;5.20;;
76552;SDS011;65395;53.168;18.156;2023-08-01T14:02:49;6.10;;;5.10;;
76552;SDS011;65395;53.168;18.156;2023-08-01T14:05:17;7.80;;;5.90;;
76552;SDS011;65395;53.168;18.156;2023-08-01T14:07:44;9.60;;;5.70;;
76552;SDS011;65395;53.168;18.156;2023-08-01T14:10:11;6.80;;;5.30;;
76552;SDS011;65395;53.168;18.156;2023-08-01T14:12:38;9.90;;;6.00;;
76552;SDS011;65395;53.168;18.156;2023-08-01T14:15:05;9.30;;;5.90;;
76552;SDS011;65395;53.168;18.156;2023-08-01T14:17:32;8.40;;;5.60;;
76552;SDS011;65395;53.168;18.156;2023-08-01T14:19:59;7.40;;;5.50;;
76552;SDS011;65395;53.168;18.156;2023-08-01T14:22:26;7.20;;;5.40;;
76552;SDS011;65395;53.168;18.156;2023-08-01T14:24:52;7.90;;;5.40;;
76552;SDS011;65395;53.168;18.156;2023-08-01T14:27:19;6.10;;;4.50;;
76552;SDS011;65395;53.168;18.156;2023-08-01T14:29:46;8.10;;;4.40;;
76552;SDS011;65395;53.168;18.156;2023-08-01T14:32:13;7.60;;;4.60;;
76552;SDS011;65395;53.168;18.156;2023-08-01T14:34:42;6.80;;;4.40;;
76552;SDS011;65395;53.168;18.156;2023-08-01T14:37:09;6.00;;;4.50;;
76552;SDS011;65395;53.168;18.156;2023-08-01T14:39:36;5.90;;;4.30;;
76552;SDS011;65395;53.168;18.156;2023-08-01T14:42:02;6.50;;;4.10;;
76552;SDS011;65395;53.168;18.156;2023-08-01T14:44:29;3.90;;;2.90;;
76552;SDS011;65395;53.168;18.156;2023-08-01T14:46:56;5.20;;;2.40;;
76552;SDS011;65395;53.168;18.156;2023-08-01T14:49:22;4.30;;;2.30;;